createdAt,value
2018-12-21T00:00:39.666Z,5.92
2018-12-21T00:03:09.883Z,5.87
2018-12-21T00:05:38.379Z,5.85
2018-12-21T00:08:06.935Z,5.82
2018-12-21T00:10:35.270Z,5.85
2018-12-21T00:13:03.663Z,5.84
2018-12-21T00:15:32.396Z,5.83
2018-12-21T00:18:00.757Z,5.86
2018-12-21T00:20:29.186Z,5.83
2018-12-21T00:22:57.514Z,5.86
2018-12-21T00:25:25.894Z,5.87
2018-12-21T00:27:54.198Z,5.87
2018-12-21T00:30:22.792Z,5.84
2018-12-21T00:32:56.864Z,5.85
2018-12-21T00:35:30.909Z,5.86
2018-12-21T00:38:05.755Z,5.92
2018-12-21T00:40:39.771Z,5.97
2018-12-21T00:46:08.883Z,6.14
2018-12-21T00:48:37.894Z,6.13
2018-12-21T00:51:06.312Z,6.22
2018-12-21T00:53:34.647Z,6.28
2018-12-21T00:56:03.005Z,6.36
2018-12-21T00:58:31.432Z,6.39
2018-12-21T01:01:00.120Z,6.39
2018-12-21T01:03:28.499Z,6.35
2018-12-21T01:05:57.238Z,6.42
2018-12-21T01:08:25.522Z,6.42
2018-12-21T01:10:53.882Z,6.51
2018-12-21T01:13:22.240Z,6.49
2018-12-21T01:15:50.555Z,6.50
2018-12-21T01:18:19.186Z,6.51
2018-12-21T01:20:47.513Z,6.50
2018-12-21T01:23:15.996Z,6.44
2018-12-21T01:25:44.316Z,6.46
2018-12-21T01:28:13.530Z,6.51
2018-12-21T01:30:41.847Z,6.48
2018-12-21T01:33:10.495Z,6.58
2018-12-21T01:35:39.044Z,6.57
2018-12-21T01:38:07.363Z,6.54
2018-12-21T01:40:35.768Z,6.58
2018-12-21T01:43:04.117Z,6.58
2018-12-21T01:45:32.495Z,6.54
2018-12-21T01:48:00.827Z,6.57
2018-12-21T01:50:29.145Z,6.64
2018-12-21T01:52:57.499Z,6.62
2018-12-21T01:55:25.849Z,6.61
2018-12-21T01:57:54.339Z,6.63
2018-12-21T02:00:22.662Z,6.57
2018-12-21T02:02:50.998Z,6.56
2018-12-21T02:05:19.430Z,6.57
2018-12-21T02:07:49.697Z,6.60
2018-12-21T02:10:17.999Z,6.59
2018-12-21T02:12:48.276Z,6.57
2018-12-21T02:15:17.396Z,6.55
2018-12-21T02:17:46.651Z,6.60
2018-12-21T02:20:14.974Z,6.61
2018-12-21T02:22:43.317Z,6.67
2018-12-21T02:25:11.884Z,6.69
2018-12-21T02:27:40.266Z,6.66
2018-12-21T02:30:08.652Z,6.67
2018-12-21T02:32:37.025Z,6.68
2018-12-21T02:35:05.714Z,6.66
2018-12-21T02:37:35.985Z,6.63
2018-12-21T02:40:06.358Z,6.64
2018-12-21T02:42:34.740Z,6.64
2018-12-21T02:45:03.137Z,6.64
2018-12-21T02:47:31.499Z,6.58
2018-12-21T02:49:59.794Z,6.47
2018-12-21T02:52:28.227Z,6.44
2018-12-21T02:54:56.600Z,6.42
2018-12-21T02:57:25.033Z,6.39
2018-12-21T02:59:53.601Z,6.37
2018-12-21T03:02:22.048Z,6.28
2018-12-21T03:04:50.577Z,6.23
2018-12-21T03:07:18.953Z,6.21
2018-12-21T03:09:47.435Z,6.17
2018-12-21T03:12:15.809Z,6.16
2018-12-21T03:14:44.208Z,6.20
2018-12-21T03:17:12.902Z,6.19
2018-12-21T03:19:41.263Z,6.13
2018-12-21T03:22:14.589Z,6.18
2018-12-21T03:24:40.156Z,6.20
2018-12-21T03:27:08.586Z,6.19
2018-12-21T03:29:36.923Z,6.20
2018-12-21T03:32:05.338Z,6.20
2018-12-21T03:34:33.691Z,6.19
2018-12-21T03:37:02.077Z,6.22
2018-12-21T03:39:30.605Z,6.21
2018-12-21T03:41:59.034Z,6.26
2018-12-21T03:44:28.151Z,6.22
2018-12-21T03:46:56.614Z,6.20
2018-12-21T03:49:24.945Z,6.20
2018-12-21T03:51:53.294Z,6.17
2018-12-21T03:54:23.244Z,6.19
2018-12-21T03:56:51.554Z,6.17
2018-12-21T03:59:19.889Z,6.18
2018-12-21T04:01:50.062Z,6.18
2018-12-21T04:04:18.387Z,6.19
2018-12-21T04:06:46.712Z,6.19
2018-12-21T04:09:15.031Z,6.23
2018-12-21T04:11:43.404Z,6.26
2018-12-21T04:14:11.742Z,6.23
2018-12-21T04:16:40.198Z,6.20
2018-12-21T04:19:08.533Z,6.24
2018-12-21T04:21:36.890Z,6.24
2018-12-21T04:24:05.250Z,6.28
2018-12-21T04:26:33.606Z,6.25
2018-12-21T04:29:01.940Z,6.23
2018-12-21T04:31:30.316Z,6.24
2018-12-21T04:33:58.671Z,6.20
2018-12-21T04:36:27.009Z,6.15
2018-12-21T04:38:55.600Z,6.11
2018-12-21T04:41:23.950Z,6.09
2018-12-21T04:43:52.412Z,6.12
2018-12-21T04:46:20.741Z,6.16
2018-12-21T04:48:49.174Z,6.13
2018-12-21T04:51:17.545Z,6.12
2018-12-21T04:53:45.924Z,6.13
2018-12-21T04:56:14.257Z,6.13
2018-12-21T04:58:42.629Z,6.13
2018-12-21T05:01:10.958Z,6.14
2018-12-21T05:03:39.323Z,6.16
2018-12-21T05:06:07.769Z,6.17
2018-12-21T05:08:36.171Z,6.23
2018-12-21T05:11:04.519Z,6.24
2018-12-21T05:13:33.035Z,6.21
2018-12-21T05:16:01.344Z,6.20
2018-12-21T05:18:29.698Z,6.21
2018-12-21T05:20:58.004Z,6.21
2018-12-21T05:23:26.370Z,6.21
2018-12-21T05:25:54.679Z,6.23
2018-12-21T05:28:24.652Z,6.20
2018-12-21T05:30:54.486Z,6.23
2018-12-21T05:33:22.801Z,6.23
2018-12-21T05:35:51.237Z,6.22
2018-12-21T05:38:19.685Z,6.21
2018-12-21T05:40:48.114Z,6.23
2018-12-21T05:43:16.501Z,6.18
2018-12-21T05:45:44.845Z,6.17
2018-12-21T05:48:13.289Z,6.18
2018-12-21T05:50:41.792Z,6.13
2018-12-21T05:53:10.137Z,6.09
2018-12-21T05:55:38.457Z,6.10
2018-12-21T05:58:06.786Z,6.31
2018-12-21T06:00:35.270Z,6.27
2018-12-21T06:03:03.688Z,6.24
2018-12-21T06:05:32.138Z,6.22
2018-12-21T06:08:02.032Z,6.27
2018-12-21T06:10:30.360Z,6.25
2018-12-21T06:12:58.793Z,6.28
2018-12-21T06:15:27.152Z,6.20
2018-12-21T06:17:55.550Z,6.17
2018-12-21T06:20:23.892Z,6.12
2018-12-21T06:22:52.227Z,6.12
2018-12-21T06:25:21.597Z,6.06
2018-12-21T06:27:50.037Z,6.00
2018-12-21T06:30:18.371Z,5.89
2018-12-21T06:32:46.715Z,5.86
2018-12-21T06:35:15.067Z,5.80
2018-12-21T06:37:43.398Z,5.75
2018-12-21T06:40:11.830Z,5.75
2018-12-21T06:42:40.580Z,5.76
2018-12-21T06:45:08.908Z,5.75
2018-12-21T06:47:37.244Z,5.71
2018-12-21T06:50:06.392Z,5.69
2018-12-21T06:52:34.895Z,5.68
2018-12-21T06:55:03.383Z,5.64
2018-12-21T06:57:31.723Z,5.65
2018-12-21T07:00:00.138Z,5.64
2018-12-21T07:02:28.514Z,5.68
2018-12-21T07:04:56.859Z,5.65
2018-12-21T07:07:25.355Z,5.61
2018-12-21T07:09:53.776Z,5.61
2018-12-21T07:12:22.136Z,5.58
2018-12-21T07:14:50.514Z,5.57
2018-12-21T07:17:18.835Z,5.53
2018-12-21T07:19:47.166Z,5.57
2018-12-21T07:22:15.500Z,5.57
2018-12-21T07:24:43.848Z,5.58
2018-12-21T07:27:12.224Z,5.56
2018-12-21T07:29:40.601Z,5.54
2018-12-21T07:32:08.944Z,5.55
2018-12-21T07:34:37.312Z,5.60
2018-12-21T07:37:05.732Z,5.58
2018-12-21T07:39:34.581Z,5.63
2018-12-21T07:42:02.900Z,5.66
2018-12-21T07:44:31.226Z,5.70
2018-12-21T07:46:59.580Z,5.68
2018-12-21T07:49:28.041Z,5.67
2018-12-21T07:51:56.421Z,5.71
2018-12-21T07:54:24.799Z,5.69
2018-12-21T07:56:53.371Z,5.67
2018-12-21T07:59:21.827Z,5.68
2018-12-21T08:01:50.659Z,5.67
2018-12-21T08:04:18.995Z,5.75
2018-12-21T08:06:47.475Z,5.78
2018-12-21T08:09:15.890Z,5.83
2018-12-21T08:11:44.230Z,5.79
2018-12-21T08:14:12.563Z,5.82
2018-12-21T08:16:40.926Z,5.84
2018-12-21T08:19:09.285Z,5.82
2018-12-21T08:21:37.661Z,5.87
2018-12-21T08:24:05.989Z,5.88
2018-12-21T08:26:34.315Z,5.89
2018-12-21T08:29:02.668Z,5.95
2018-12-21T08:31:30.998Z,5.99
2018-12-21T08:33:59.303Z,6.02
2018-12-21T08:36:27.674Z,6.04
2018-12-21T08:38:55.998Z,6.12
2018-12-21T08:41:24.339Z,6.23
2018-12-21T08:43:52.671Z,6.20
2018-12-21T08:46:21.041Z,6.18
2018-12-21T08:48:49.504Z,6.17
2018-12-21T08:51:17.862Z,6.21
2018-12-21T08:53:52.479Z,6.19
2018-12-21T08:56:16.578Z,6.19
2018-12-21T08:58:44.927Z,6.25
2018-12-21T09:01:13.263Z,6.30
2018-12-21T09:03:41.654Z,6.35
2018-12-21T09:06:18.256Z,6.40
2018-12-21T09:08:40.490Z,6.43
2018-12-21T09:11:08.828Z,6.52
2018-12-21T09:13:37.249Z,6.55
2018-12-21T09:16:05.621Z,6.62
2018-12-21T09:18:33.952Z,6.60
2018-12-21T09:21:02.367Z,6.64
2018-12-21T09:23:30.679Z,6.65
2018-12-21T09:25:59.031Z,6.65
2018-12-21T09:28:27.390Z,6.65
2018-12-21T09:30:55.761Z,6.64
2018-12-21T09:33:24.184Z,6.71
2018-12-21T09:35:53.023Z,6.67
2018-12-21T09:38:21.634Z,6.73
2018-12-21T09:40:50.053Z,6.78
2018-12-21T09:43:18.388Z,6.72
2018-12-21T09:45:46.718Z,6.73
2018-12-21T09:48:15.140Z,6.85
2018-12-21T09:50:43.647Z,6.83
2018-12-21T09:53:12.005Z,6.85
2018-12-21T09:55:40.405Z,6.87
2018-12-21T09:58:08.784Z,6.87
2018-12-21T10:00:37.286Z,6.84
2018-12-21T10:03:05.621Z,6.81
2018-12-21T10:05:33.969Z,6.82
2018-12-21T10:08:02.319Z,6.82
2018-12-21T10:10:30.692Z,6.78
2018-12-21T10:12:59.058Z,6.82
2018-12-21T10:15:27.454Z,6.73
2018-12-21T10:17:55.783Z,6.74
2018-12-21T10:20:24.199Z,6.79
2018-12-21T10:22:52.583Z,6.83
2018-12-21T10:25:20.958Z,6.83
2018-12-21T10:27:50.333Z,6.93
2018-12-21T10:30:18.775Z,6.95
2018-12-21T10:32:47.121Z,6.94
2018-12-21T10:35:15.554Z,6.96
2018-12-21T10:37:43.860Z,6.95
2018-12-21T10:40:12.194Z,6.89
2018-12-21T10:42:40.619Z,6.78
2018-12-21T10:45:08.984Z,6.63
2018-12-21T10:47:37.301Z,6.54
2018-12-21T10:50:08.051Z,6.59
2018-12-21T10:52:36.384Z,6.46
2018-12-21T10:55:05.315Z,6.36
2018-12-21T10:57:33.696Z,6.29
2018-12-21T11:00:02.024Z,6.21
2018-12-21T11:02:30.458Z,6.12
2018-12-21T11:04:58.779Z,6.05
2018-12-21T11:07:27.791Z,5.97
2018-12-21T11:09:56.202Z,5.91
2018-12-21T11:12:24.773Z,5.88
2018-12-21T11:14:53.162Z,5.90
2018-12-21T11:17:21.527Z,5.93
2018-12-21T11:19:49.921Z,5.96
2018-12-21T11:22:18.248Z,6.03
2018-12-21T11:24:46.594Z,6.10
2018-12-21T11:27:14.940Z,6.11
2018-12-21T11:29:43.344Z,6.14
2018-12-21T11:32:11.716Z,6.13
2018-12-21T11:34:40.052Z,6.08
2018-12-21T11:37:08.511Z,6.07
2018-12-21T11:39:37.512Z,6.06
2018-12-21T11:42:05.877Z,5.99
2018-12-21T11:44:34.224Z,5.97
2018-12-21T11:47:02.576Z,5.94
2018-12-21T11:49:30.999Z,5.91
2018-12-21T11:51:59.658Z,5.93
2018-12-21T11:54:27.978Z,5.91
2018-12-21T11:56:56.355Z,5.89
2018-12-21T11:59:24.697Z,5.90
2018-12-21T12:01:53.041Z,5.89
2018-12-21T12:04:21.365Z,5.89
2018-12-21T12:06:49.717Z,5.89
2018-12-21T12:09:18.062Z,5.87
2018-12-21T12:11:46.403Z,5.93
2018-12-21T12:14:14.854Z,5.93
2018-12-21T12:16:43.168Z,5.94
2018-12-21T12:19:11.526Z,5.93
2018-12-21T12:21:39.847Z,6.01
2018-12-21T12:24:08.189Z,5.98
2018-12-21T12:26:44.270Z,5.96
2018-12-21T12:29:06.911Z,5.92
2018-12-21T12:31:36.042Z,5.86
2018-12-21T12:34:04.418Z,5.82
2018-12-21T12:36:32.807Z,5.83
2018-12-21T12:39:01.145Z,5.78
2018-12-21T12:41:29.589Z,5.76
2018-12-21T12:43:58.744Z,5.70
2018-12-21T12:46:27.165Z,5.69
2018-12-21T12:48:55.684Z,5.70
2018-12-21T12:51:24.109Z,5.66
2018-12-21T12:53:52.504Z,5.60
2018-12-21T12:56:20.921Z,5.60
2018-12-21T12:58:49.276Z,5.54
2018-12-21T13:01:17.745Z,5.48
2018-12-21T13:03:46.104Z,5.46
2018-12-21T13:06:14.538Z,5.42
2018-12-21T13:08:42.899Z,5.41
2018-12-21T13:11:11.304Z,5.38
2018-12-21T13:13:39.673Z,5.33
2018-12-21T13:16:08.025Z,5.29
2018-12-21T13:18:36.354Z,5.24
2018-12-21T13:21:04.746Z,5.23
2018-12-21T13:23:33.285Z,5.22
2018-12-21T13:26:01.638Z,5.24
2018-12-21T13:28:30.009Z,5.21
2018-12-21T13:30:58.402Z,5.24
2018-12-21T13:33:27.542Z,5.25
2018-12-21T13:35:55.881Z,5.25
2018-12-21T13:38:24.308Z,5.26
2018-12-21T13:40:52.685Z,5.26
2018-12-21T13:43:21.016Z,5.27
2018-12-21T13:45:49.341Z,5.26
2018-12-21T13:48:17.726Z,5.26
2018-12-21T13:50:46.172Z,5.27
2018-12-21T13:53:14.537Z,5.23
2018-12-21T13:55:42.867Z,5.21
2018-12-21T13:58:11.242Z,5.20
2018-12-21T14:00:39.707Z,5.21
2018-12-21T14:03:08.110Z,5.19
2018-12-21T14:05:36.445Z,5.16
2018-12-21T14:08:04.865Z,5.20
2018-12-21T14:10:33.234Z,5.27
2018-12-21T14:13:01.583Z,5.26
2018-12-21T14:15:30.068Z,5.26
2018-12-21T14:17:58.433Z,5.27
2018-12-21T14:20:26.934Z,5.27
2018-12-21T14:22:55.488Z,5.35
2018-12-21T14:25:28.807Z,5.35
2018-12-21T14:27:55.773Z,5.39
2018-12-21T14:30:24.299Z,5.38
2018-12-21T14:32:52.611Z,5.38
2018-12-21T14:35:21.049Z,5.36
2018-12-21T14:37:49.436Z,5.36
2018-12-21T14:40:17.864Z,5.38
2018-12-21T14:42:46.231Z,5.34
2018-12-21T14:45:14.590Z,5.33
2018-12-21T14:47:43.136Z,5.34
2018-12-21T14:50:11.485Z,5.35
2018-12-21T14:52:39.844Z,5.29
2018-12-21T14:55:09.690Z,5.28
2018-12-21T14:57:38.051Z,5.29
2018-12-21T15:00:10.597Z,5.34
2018-12-21T15:02:38.969Z,5.40
2018-12-21T15:05:08.093Z,5.41
2018-12-21T15:07:36.553Z,5.44
2018-12-21T15:10:07.495Z,5.42
2018-12-21T15:12:36.563Z,5.42
2018-12-21T15:15:06.103Z,5.47
2018-12-21T15:17:35.061Z,5.50
2018-12-21T15:20:04.501Z,5.55
2018-12-21T15:22:32.837Z,5.59
2018-12-21T15:25:01.228Z,5.62
2018-12-21T15:27:29.683Z,5.65
2018-12-21T15:29:58.086Z,5.65
2018-12-21T15:32:26.453Z,5.63
2018-12-21T15:34:54.831Z,5.63
2018-12-21T15:37:23.410Z,5.68
2018-12-21T15:39:51.811Z,5.71
2018-12-21T15:42:20.148Z,5.76
2018-12-21T15:44:48.551Z,5.77
2018-12-21T15:47:16.940Z,5.84
2018-12-21T15:49:45.283Z,5.93
2018-12-21T15:52:13.660Z,5.96
2018-12-21T15:54:42.081Z,5.96
2018-12-21T15:57:10.468Z,6.01
2018-12-21T15:59:38.797Z,6.12
2018-12-21T16:02:07.161Z,6.32
2018-12-21T16:04:35.494Z,6.37
2018-12-21T16:07:03.868Z,6.39
2018-12-21T16:09:32.267Z,6.39
2018-12-21T16:12:00.592Z,6.39
2018-12-21T16:14:34.149Z,6.43
2018-12-21T16:16:59.803Z,6.51
2018-12-21T16:19:28.231Z,6.58
2018-12-21T16:21:56.670Z,6.60
2018-12-21T16:24:25.195Z,6.68
2018-12-21T16:26:53.940Z,6.87
2018-12-21T16:29:22.286Z,6.86
2018-12-21T16:31:50.636Z,6.87
2018-12-21T16:34:19.025Z,7.00
2018-12-21T16:36:48.085Z,7.18
2018-12-21T16:39:16.487Z,7.23
2018-12-21T16:41:45.016Z,7.30
2018-12-21T16:44:13.454Z,7.28
2018-12-21T16:46:42.933Z,7.23
2018-12-21T16:49:11.361Z,7.39
2018-12-21T16:51:39.750Z,7.43
2018-12-21T16:54:08.159Z,7.46
2018-12-21T16:56:36.485Z,7.37
2018-12-21T16:59:04.855Z,7.57
2018-12-21T17:01:33.204Z,7.55
2018-12-21T17:04:01.568Z,7.54
2018-12-21T17:06:29.894Z,7.41
2018-12-21T17:08:58.234Z,7.35
2018-12-21T17:11:26.544Z,7.57
2018-12-21T17:13:54.940Z,7.98
2018-12-21T17:16:23.409Z,8.21
2018-12-21T17:18:51.797Z,8.61
2018-12-21T17:21:20.379Z,9.07
2018-12-21T17:23:48.749Z,9.13
2018-12-21T17:26:21.161Z,9.26
2018-12-21T17:28:47.599Z,9.28
2018-12-21T17:31:15.928Z,9.41
2018-12-21T17:33:44.329Z,9.43
2018-12-21T17:36:12.684Z,9.60
2018-12-21T17:38:41.058Z,9.67
2018-12-21T17:41:09.459Z,9.88
2018-12-21T17:43:37.805Z,9.92
2018-12-21T17:46:06.168Z,10.07
2018-12-21T17:48:35.274Z,10.20
2018-12-21T17:51:03.714Z,10.10
2018-12-21T17:53:32.075Z,10.17
2018-12-21T17:56:00.408Z,10.25
2018-12-21T17:58:29.585Z,10.29
2018-12-21T18:00:57.983Z,10.47
2018-12-21T18:03:27.197Z,10.53
2018-12-21T18:05:55.538Z,10.67
2018-12-21T18:08:24.780Z,10.68
2018-12-21T18:10:53.124Z,10.78
2018-12-21T18:13:21.479Z,10.89
2018-12-21T18:15:49.880Z,10.87
2018-12-21T18:18:25.190Z,10.87
2018-12-21T18:20:48.619Z,10.98
2018-12-21T18:23:17.139Z,11.01
2018-12-21T18:25:46.120Z,11.08
2018-12-21T18:28:18.410Z,11.07
2018-12-21T18:30:47.003Z,11.16
2018-12-21T18:33:15.326Z,11.18
2018-12-21T18:35:43.663Z,11.14
2018-12-21T18:38:12.025Z,11.22
2018-12-21T18:40:40.916Z,11.27
2018-12-21T18:43:09.315Z,11.21
2018-12-21T18:45:37.661Z,11.20
2018-12-21T18:48:06.478Z,11.17
2018-12-21T18:50:34.837Z,11.18
2018-12-21T18:53:03.188Z,11.15
2018-12-21T18:55:31.812Z,11.00
2018-12-21T18:58:00.275Z,11.16
2018-12-21T19:00:28.940Z,11.23
2018-12-21T19:02:59.171Z,11.20
2018-12-21T19:05:27.509Z,11.16
2018-12-21T19:07:55.871Z,11.20
2018-12-21T19:10:24.202Z,11.19
2018-12-21T19:12:52.643Z,11.14
2018-12-21T19:15:22.511Z,11.06
2018-12-21T19:17:51.268Z,10.98
2018-12-21T19:20:19.710Z,10.95
2018-12-21T19:22:48.902Z,10.94
2018-12-21T19:25:17.498Z,10.95
2018-12-21T19:27:45.877Z,11.05
2018-12-21T19:30:14.240Z,11.04
2018-12-21T19:32:43.404Z,10.99
2018-12-21T19:35:11.798Z,10.98
2018-12-21T19:37:40.434Z,10.97
2018-12-21T19:40:09.008Z,11.06
2018-12-21T19:42:37.515Z,11.07
2018-12-21T19:45:07.693Z,11.09
2018-12-21T19:47:36.012Z,11.16
2018-12-21T19:50:06.706Z,11.17
2018-12-21T19:52:35.124Z,11.10
2018-12-21T19:55:08.246Z,11.16
2018-12-21T19:57:36.645Z,11.19
2018-12-21T20:00:07.492Z,11.20
2018-12-21T20:02:36.011Z,11.25
2018-12-21T20:05:05.908Z,11.21
2018-12-21T20:07:34.258Z,11.20
2018-12-21T20:10:02.636Z,11.29
2018-12-21T20:12:31.050Z,11.30
2018-12-21T20:14:59.444Z,11.28
2018-12-21T20:17:27.770Z,11.44
2018-12-21T20:19:56.288Z,11.55
2018-12-21T20:22:24.725Z,11.66
2018-12-21T20:24:53.138Z,11.84
2018-12-21T20:27:21.501Z,11.91
2018-12-21T20:29:50.277Z,11.83
2018-12-21T20:32:18.614Z,11.76
2018-12-21T20:34:46.959Z,11.73
2018-12-21T20:37:15.333Z,11.85
2018-12-21T20:39:43.678Z,11.83
2018-12-21T20:42:12.070Z,11.80
2018-12-21T20:44:40.478Z,11.75
2018-12-21T20:47:08.865Z,11.77
2018-12-21T20:49:37.252Z,11.74
2018-12-21T20:52:05.631Z,11.73
2018-12-21T20:54:33.961Z,11.72
2018-12-21T20:57:02.539Z,11.85
2018-12-21T20:59:30.975Z,12.01
2018-12-21T21:01:59.323Z,12.10
2018-12-21T21:04:27.729Z,12.09
2018-12-21T21:06:56.058Z,12.04
2018-12-21T21:09:24.425Z,11.98
2018-12-21T21:11:52.766Z,11.81
2018-12-21T21:14:21.155Z,11.80
2018-12-21T21:16:49.605Z,11.83
2018-12-21T21:19:17.998Z,11.73
2018-12-21T21:21:47.298Z,11.67
2018-12-21T21:24:15.630Z,11.63
2018-12-21T21:26:43.998Z,11.60
2018-12-21T21:29:12.309Z,11.47
2018-12-21T21:31:40.714Z,11.44
2018-12-21T21:34:09.057Z,11.37
2018-12-21T21:36:37.413Z,11.26
2018-12-21T21:39:06.045Z,11.17
2018-12-21T21:41:34.436Z,11.13
2018-12-21T21:44:02.764Z,11.00
2018-12-21T21:46:31.108Z,10.97
2018-12-21T21:48:59.481Z,10.86
2018-12-21T21:51:27.884Z,10.88
2018-12-21T21:53:56.247Z,10.88
2018-12-21T21:56:24.828Z,10.78
2018-12-21T21:58:53.157Z,10.71
2018-12-21T22:01:21.600Z,10.75
2018-12-21T22:03:50.229Z,10.74
2018-12-21T22:06:18.657Z,10.80
2018-12-21T22:08:47.008Z,10.81
2018-12-21T22:11:15.341Z,10.73
2018-12-21T22:13:43.684Z,10.78
2018-12-21T22:16:12.065Z,10.85
2018-12-21T22:18:40.409Z,10.88
2018-12-21T22:21:08.751Z,10.95
2018-12-21T22:23:37.127Z,10.94
2018-12-21T22:26:06.043Z,11.08
2018-12-21T22:28:34.628Z,11.10
2018-12-21T22:31:03.047Z,10.99
2018-12-21T22:33:31.534Z,10.92
2018-12-21T22:35:59.888Z,10.91
2018-12-21T22:38:28.434Z,10.94
2018-12-21T22:40:56.789Z,10.89
2018-12-21T22:43:25.157Z,10.86
2018-12-21T22:45:53.521Z,10.78
2018-12-21T22:48:21.842Z,10.78
2018-12-21T22:50:50.375Z,10.86
2018-12-21T22:53:18.780Z,10.93
2018-12-21T22:55:47.159Z,11.06
2018-12-21T22:58:15.541Z,10.99
2018-12-21T23:00:44.145Z,11.05
2018-12-21T23:03:12.712Z,11.08
2018-12-21T23:05:41.049Z,11.15
2018-12-21T23:08:09.402Z,11.18
2018-12-21T23:10:37.775Z,11.17
2018-12-21T23:13:06.133Z,11.23
2018-12-21T23:15:34.552Z,11.18
2018-12-21T23:18:02.887Z,11.17
2018-12-21T23:20:31.261Z,11.19
2018-12-21T23:22:59.598Z,11.15
2018-12-21T23:25:27.990Z,11.22
2018-12-21T23:28:04.787Z,11.22
2018-12-21T23:30:26.776Z,11.22
2018-12-21T23:32:55.232Z,11.22
2018-12-21T23:35:23.594Z,11.20
2018-12-21T23:37:51.995Z,11.19
2018-12-21T23:40:20.546Z,11.15
2018-12-21T23:42:48.891Z,11.21
2018-12-21T23:45:17.234Z,11.20
2018-12-21T23:47:45.598Z,11.29
2018-12-21T23:50:14.062Z,11.36
2018-12-21T23:52:42.525Z,11.59
2018-12-21T23:55:10.877Z,11.61
2018-12-21T23:57:39.289Z,11.57
